createdAt,value
2023-04-07T00:00:24.370Z,100679.28
2023-04-07T00:02:50.812Z,100679.91
2023-04-07T00:05:17.360Z,100676.69
2023-04-07T00:07:55.182Z,100676.81
2023-04-07T00:10:22.720Z,100679.50
2023-04-07T00:12:49.126Z,100678.63
2023-04-07T00:15:15.722Z,100680.53
2023-04-07T00:17:42.161Z,100679.53
2023-04-07T00:20:08.901Z,100675.78
2023-04-07T00:22:37.630Z,100675.28
2023-04-07T00:25:04.349Z,100676.53
2023-04-07T00:27:30.870Z,100676.03
2023-04-07T00:29:57.374Z,100672.38
2023-04-07T00:32:23.821Z,100675.34
2023-04-07T00:34:50.265Z,100670.47
2023-04-07T00:37:16.716Z,100666.13
2023-04-07T00:39:43.112Z,100669.34
2023-04-07T00:42:09.815Z,100667.28
2023-04-07T00:44:36.227Z,100660.56
2023-04-07T00:47:02.612Z,100661.69
2023-04-07T00:49:29.237Z,100659.28
2023-04-07T00:51:56.543Z,100659.41
2023-04-07T00:54:26.057Z,100662.22
2023-04-07T00:56:53.428Z,100656.03
2023-04-07T00:59:20.056Z,100652.56
2023-04-07T01:01:52.608Z,100645.34
2023-04-07T01:04:35.992Z,100655.13
2023-04-07T01:07:26.147Z,100646.22
2023-04-07T01:09:58.671Z,100648.16
2023-04-07T01:12:34.244Z,100643.78
2023-04-07T01:15:06.063Z,100646.75
2023-04-07T01:17:33.061Z,100645.81
2023-04-07T01:20:05.166Z,100641.44
2023-04-07T01:22:43.942Z,100645.06
2023-04-07T01:25:45.677Z,100641.44
2023-04-07T01:28:33.976Z,100638.59
2023-04-07T01:31:01.618Z,100636.06
2023-04-07T01:33:32.002Z,100632.16
2023-04-07T01:36:00.016Z,100630.34
2023-04-07T01:38:26.688Z,100632.66
2023-04-07T01:40:54.463Z,100632.06
2023-04-07T01:43:21.360Z,100631.25
2023-04-07T01:45:47.749Z,100631.00
2023-04-07T01:48:15.686Z,100631.63
2023-04-07T01:50:42.937Z,100635.25
2023-04-07T01:53:09.673Z,100627.13
2023-04-07T01:55:36.117Z,100632.06
2023-04-07T01:58:06.662Z,100632.91
2023-04-07T02:00:34.330Z,100633.88
2023-04-07T02:03:08.728Z,100632.78
2023-04-07T02:05:36.038Z,100628.53
2023-04-07T02:08:05.283Z,100631.78
2023-04-07T02:10:35.464Z,100632.16
2023-04-07T02:13:04.112Z,100625.41
2023-04-07T02:15:32.104Z,100626.09
2023-04-07T02:17:59.491Z,100624.41
2023-04-07T02:20:26.436Z,100621.31
2023-04-07T02:22:53.731Z,100629.88
2023-04-07T02:25:27.983Z,100621.44
2023-04-07T02:27:55.303Z,100624.69
2023-04-07T02:30:22.029Z,100624.41
2023-04-07T02:32:48.477Z,100624.03
2023-04-07T02:35:16.599Z,100624.03
2023-04-07T02:37:43.985Z,100622.59
2023-04-07T02:40:11.011Z,100621.94
2023-04-07T02:42:37.483Z,100630.56
2023-04-07T02:45:04.934Z,100628.13
2023-04-07T02:47:31.705Z,100619.38
2023-04-07T02:49:58.175Z,100627.75
2023-04-07T02:52:24.580Z,100620.97
2023-04-07T02:54:51.130Z,100624.41
2023-04-07T02:57:17.479Z,100623.38
2023-04-07T02:59:44.028Z,100625.19
2023-04-07T03:02:10.623Z,100623.97
2023-04-07T03:04:37.283Z,100619.88
2023-04-07T03:07:03.686Z,100625.03
2023-04-07T03:09:30.083Z,100625.19
2023-04-07T03:11:56.571Z,100629.31
2023-04-07T03:14:22.950Z,100618.59
2023-04-07T03:16:49.342Z,100624.63
2023-04-07T03:19:16.334Z,100619.31
2023-04-07T03:21:42.722Z,100624.34
2023-04-07T03:24:09.158Z,100628.78
2023-04-07T03:26:35.595Z,100629.34
2023-04-07T03:29:01.956Z,100627.50
2023-04-07T03:31:28.349Z,100632.66
2023-04-07T03:33:54.856Z,100626.47
2023-04-07T03:36:21.400Z,100628.28
2023-04-07T03:38:48.250Z,100626.75
2023-04-07T03:41:14.658Z,100626.25
2023-04-07T03:43:41.304Z,100622.25
2023-04-07T03:46:07.806Z,100633.44
2023-04-07T03:48:34.214Z,100632.75
2023-04-07T03:51:00.637Z,100631.06
2023-04-07T03:53:27.110Z,100629.81
2023-04-07T03:55:53.592Z,100630.84
2023-04-07T03:58:20.266Z,100635.72
2023-04-07T04:00:46.649Z,100632.63
2023-04-07T04:03:13.098Z,100633.19
2023-04-07T04:05:40.435Z,100637.44
2023-04-07T04:08:06.868Z,100639.06
2023-04-07T04:10:33.271Z,100642.91
2023-04-07T04:13:06.511Z,100647.69
2023-04-07T04:15:32.905Z,100644.31
2023-04-07T04:17:59.432Z,100639.66
2023-04-07T04:20:25.846Z,100641.88
2023-04-07T04:22:52.353Z,100642.50
2023-04-07T04:25:19.032Z,100642.75
2023-04-07T04:27:45.645Z,100647.78
2023-04-07T04:30:12.282Z,100644.56
2023-04-07T04:32:39.451Z,100647.66
2023-04-07T04:35:06.361Z,100648.31
2023-04-07T04:37:32.725Z,100652.94
2023-04-07T04:39:59.257Z,100654.13
2023-04-07T04:42:27.768Z,100654.38
2023-04-07T04:44:54.184Z,100656.47
2023-04-07T04:47:20.611Z,100659.13
2023-04-07T04:49:47.122Z,100660.31
2023-04-07T04:52:13.482Z,100662.47
2023-04-07T04:54:39.886Z,100663.44
2023-04-07T04:57:06.532Z,100659.13
2023-04-07T04:59:33.875Z,100665.84
2023-04-07T05:02:00.390Z,100666.91
2023-04-07T05:04:28.346Z,100669.31
2023-04-07T05:06:54.929Z,100679.09
2023-04-07T05:09:21.322Z,100669.09
2023-04-07T05:11:47.969Z,100673.97
2023-04-07T05:14:14.411Z,100677.69
2023-04-07T05:16:41.412Z,100674.72
2023-04-07T05:19:08.793Z,100681.31
2023-04-07T05:21:35.289Z,100681.47
2023-04-07T05:24:01.890Z,100680.28
2023-04-07T05:26:28.343Z,100685.56
2023-04-07T05:28:54.734Z,100686.41
2023-04-07T05:31:21.235Z,100689.47
2023-04-07T05:33:47.668Z,100697.97
2023-04-07T05:36:14.090Z,100706.53
2023-04-07T05:38:41.193Z,100700.06
2023-04-07T05:41:07.648Z,100698.63
2023-04-07T05:43:34.032Z,100709.84
2023-04-07T05:46:00.522Z,100698.72
2023-04-07T05:48:26.987Z,100702.34
2023-04-07T05:50:53.505Z,100712.53
2023-04-07T05:53:21.091Z,100700.28
2023-04-07T05:55:47.725Z,100707.09
2023-04-07T05:58:14.146Z,100700.94
2023-04-07T06:00:41.474Z,100702.19
2023-04-07T06:03:08.023Z,100704.50
2023-04-07T06:05:34.701Z,100702.19
2023-04-07T06:08:01.144Z,100713.31
2023-04-07T06:10:27.558Z,100712.53
2023-04-07T06:12:53.926Z,100714.19
2023-04-07T06:15:20.331Z,100725.69
2023-04-07T06:17:46.724Z,100716.56
2023-04-07T06:20:13.145Z,100731.66
2023-04-07T06:22:39.495Z,100733.56
2023-04-07T06:25:06.928Z,100729.81
2023-04-07T06:27:33.518Z,100732.03
2023-04-07T06:29:59.962Z,100740.53
2023-04-07T06:32:26.403Z,100746.06
2023-04-07T06:34:52.810Z,100740.75
2023-04-07T06:37:19.256Z,100734.78
2023-04-07T06:39:45.740Z,100742.03
2023-04-07T06:42:12.137Z,100746.16
2023-04-07T06:44:38.588Z,100746.91
2023-04-07T06:47:04.976Z,100743.56
2023-04-07T06:49:31.337Z,100747.56
2023-04-07T06:51:57.695Z,100747.44
2023-04-07T06:54:24.141Z,100747.44
2023-04-07T06:56:51.899Z,100751.53
2023-04-07T06:59:19.884Z,100750.50
2023-04-07T07:01:46.373Z,100751.34
2023-04-07T07:04:12.896Z,100750.94
2023-04-07T07:06:39.424Z,100756.06
2023-04-07T07:09:05.784Z,100753.06
2023-04-07T07:11:32.194Z,100753.06
2023-04-07T07:13:58.551Z,100754.47
2023-04-07T07:16:24.960Z,100759.25
2023-04-07T07:18:51.387Z,100761.97
2023-04-07T07:21:18.810Z,100760.91
2023-04-07T07:23:45.870Z,100762.50
2023-04-07T07:26:12.521Z,100771.78
2023-04-07T07:28:38.991Z,100768.38
2023-04-07T07:31:10.382Z,100764.78
2023-04-07T07:33:36.755Z,100763.91
2023-04-07T07:36:03.154Z,100772.78
2023-04-07T07:38:29.525Z,100771.19
2023-04-07T07:40:55.949Z,100775.38
2023-04-07T07:43:22.314Z,100783.50
2023-04-07T07:45:48.703Z,100784.81
2023-04-07T07:48:15.397Z,100793.84
2023-04-07T07:50:42.510Z,100793.81
2023-04-07T07:53:09.249Z,100788.34
2023-04-07T07:55:35.671Z,100797.84
2023-04-07T07:58:02.036Z,100799.16
2023-04-07T08:00:28.662Z,100802.97
2023-04-07T08:02:55.312Z,100808.56
2023-04-07T08:05:21.861Z,100804.16
2023-04-07T08:07:48.788Z,100809.72
2023-04-07T08:10:15.459Z,100818.31
2023-04-07T08:12:41.927Z,100818.28
2023-04-07T08:15:10.243Z,100818.94
2023-04-07T08:17:36.748Z,100815.78
2023-04-07T08:20:03.710Z,100821.84
2023-04-07T08:22:30.144Z,100820.81
2023-04-07T08:24:56.565Z,100825.97
2023-04-07T08:27:22.945Z,100816.91
2023-04-07T08:29:58.768Z,100823.81
2023-04-07T08:32:25.437Z,100815.06
2023-04-07T08:34:51.884Z,100825.50
2023-04-07T08:37:18.239Z,100832.66
2023-04-07T08:39:44.633Z,100833.56
2023-04-07T08:42:12.451Z,100833.06
2023-04-07T08:44:39.105Z,100842.44
2023-04-07T08:47:07.914Z,100837.28
2023-04-07T08:49:37.483Z,100844.78
2023-04-07T08:52:07.927Z,100844.59
2023-04-07T08:54:36.006Z,100846.53
2023-04-07T08:57:02.887Z,100848.00
2023-04-07T08:59:29.695Z,100856.03
2023-04-07T09:01:56.546Z,100858.78
2023-04-07T09:04:24.608Z,100856.56
2023-04-07T09:06:51.001Z,100854.03
2023-04-07T09:09:17.398Z,100847.34
2023-04-07T09:11:43.915Z,100857.94
2023-04-07T09:14:10.791Z,100851.59
2023-04-07T09:16:37.846Z,100856.31
2023-04-07T09:19:04.279Z,100856.75
2023-04-07T09:21:48.436Z,100864.63
2023-04-07T09:24:25.931Z,100861.94
2023-04-07T09:27:13.939Z,100864.78
2023-04-07T09:29:43.757Z,100866.41
2023-04-07T09:32:11.016Z,100874.19
2023-04-07T09:34:41.409Z,100875.88
2023-04-07T09:37:09.510Z,100878.06
2023-04-07T09:39:50.449Z,100875.41
2023-04-07T09:42:17.061Z,100876.19
2023-04-07T09:44:44.194Z,100879.16
2023-04-07T09:47:11.152Z,100873.84
2023-04-07T09:49:53.411Z,100877.47
2023-04-07T09:52:23.416Z,100877.41
2023-04-07T09:54:51.184Z,100882.25
2023-04-07T09:57:18.550Z,100883.88
2023-04-07T09:59:45.042Z,100891.63
2023-04-07T10:02:12.708Z,100884.50
2023-04-07T10:04:40.408Z,100886.00
2023-04-07T10:07:06.872Z,100879.56
2023-04-07T10:09:33.315Z,100882.03
2023-04-07T10:12:00.047Z,100886.66
2023-04-07T10:14:28.167Z,100890.50
2023-04-07T10:16:54.898Z,100887.56
2023-04-07T10:19:22.738Z,100892.69
2023-04-07T10:21:51.761Z,100892.50
2023-04-07T10:24:30.370Z,100895.41
2023-04-07T10:27:01.438Z,100899.00
2023-04-07T10:29:29.872Z,100898.75
2023-04-07T10:31:56.515Z,100903.59
2023-04-07T10:34:48.530Z,100898.09
2023-04-07T10:37:17.644Z,100902.06
2023-04-07T10:39:44.004Z,100904.31
2023-04-07T10:42:39.093Z,100910.06
2023-04-07T10:45:09.381Z,100912.66
2023-04-07T10:47:58.852Z,100917.69
2023-04-07T10:50:25.781Z,100915.94
2023-04-07T10:53:15.162Z,100931.38
2023-04-07T10:55:44.460Z,100930.72
2023-04-07T10:58:23.959Z,100927.81
2023-04-07T11:01:10.667Z,100938.44
2023-04-07T11:03:39.126Z,100943.88
2023-04-07T11:06:14.813Z,100945.78
2023-04-07T11:08:42.763Z,100952.66
2023-04-07T11:11:11.600Z,100950.44
2023-04-07T11:13:48.098Z,100952.38
2023-04-07T11:16:19.417Z,100953.16
2023-04-07T11:18:47.723Z,100962.97
2023-04-07T11:21:18.448Z,100957.00
2023-04-07T11:23:46.547Z,100964.75
2023-04-07T11:26:14.247Z,100957.31
2023-04-07T11:28:52.657Z,100957.97
2023-04-07T11:31:26.358Z,100958.63
2023-04-07T11:33:55.006Z,100955.38
2023-04-07T11:36:37.560Z,100957.34
2023-04-07T11:39:04.128Z,100953.69
2023-04-07T11:41:32.723Z,100949.78
2023-04-07T11:44:06.351Z,100952.09
2023-04-07T11:46:32.808Z,100959.81
2023-04-07T11:49:12.986Z,100958.66
2023-04-07T11:51:39.608Z,100963.31
2023-04-07T11:54:06.027Z,100967.25
2023-04-07T11:56:42.834Z,100971.25
2023-04-07T11:59:09.331Z,100967.78
2023-04-07T12:01:41.622Z,100966.78
2023-04-07T12:04:13.261Z,100970.34
2023-04-07T12:06:41.456Z,100978.34
2023-04-07T12:09:08.872Z,100979.03
2023-04-07T12:11:36.396Z,100985.56
2023-04-07T12:14:05.029Z,100979.63
2023-04-07T12:16:31.474Z,100991.09
2023-04-07T12:18:57.948Z,100993.66
2023-04-07T12:21:26.677Z,100994.16
2023-04-07T12:23:53.092Z,100996.72
2023-04-07T12:26:21.779Z,101000.78
2023-04-07T12:28:49.525Z,100997.03
2023-04-07T12:31:15.933Z,101006.06
2023-04-07T12:33:42.407Z,101000.59
2023-04-07T12:36:08.851Z,101000.22
2023-04-07T12:38:35.242Z,100998.63
2023-04-07T12:41:03.478Z,101000.94
2023-04-07T12:43:30.929Z,101005.50
2023-04-07T12:45:57.573Z,101009.81
2023-04-07T12:48:24.752Z,101013.00
2023-04-07T12:50:52.035Z,101010.47
2023-04-07T12:53:18.409Z,101014.22
2023-04-07T12:55:44.786Z,101011.84
2023-04-07T12:58:11.166Z,101014.84
2023-04-07T13:00:37.517Z,101020.66
2023-04-07T13:03:04.124Z,101016.78
2023-04-07T13:05:30.579Z,101019.25
2023-04-07T13:07:56.964Z,101017.28
2023-04-07T13:10:23.344Z,101018.94
2023-04-07T13:12:49.966Z,101018.69
2023-04-07T13:15:16.568Z,101021.81
2023-04-07T13:17:43.147Z,101013.00
2023-04-07T13:20:09.747Z,101015.34
2023-04-07T13:22:36.295Z,101015.84
2023-04-07T13:25:02.934Z,101019.13
2023-04-07T13:27:29.362Z,101021.03
2023-04-07T13:29:56.009Z,101017.94
2023-04-07T13:32:23.485Z,101023.41
2023-04-07T13:34:50.071Z,101025.97
2023-04-07T13:37:16.625Z,101023.50
2023-04-07T13:39:43.076Z,101022.66
2023-04-07T13:42:10.904Z,101034.38
2023-04-07T13:44:39.986Z,101033.50
2023-04-07T13:47:06.390Z,101034.84
2023-04-07T13:49:32.800Z,101034.09
2023-04-07T13:51:59.298Z,101036.81
2023-04-07T13:54:25.678Z,101034.22
2023-04-07T13:56:52.686Z,101038.50
2023-04-07T13:59:19.180Z,101033.13
2023-04-07T14:01:45.649Z,101033.69
2023-04-07T14:04:12.332Z,101036.41
2023-04-07T14:06:38.845Z,101031.00
2023-04-07T14:09:06.347Z,101030.78
2023-04-07T14:11:34.535Z,101033.81
2023-04-07T14:14:01.778Z,101030.03
2023-04-07T14:16:28.505Z,101026.06
2023-04-07T14:18:56.193Z,101030.88
2023-04-07T14:21:22.959Z,101034.44
2023-04-07T14:23:49.411Z,101026.94
2023-04-07T14:26:15.902Z,101032.59
2023-04-07T14:28:42.667Z,101031.66
2023-04-07T14:31:14.067Z,101032.94
2023-04-07T14:33:40.468Z,101035.50
2023-04-07T14:36:06.994Z,101038.94
2023-04-07T14:38:35.199Z,101040.00
2023-04-07T14:43:32.548Z,101032.66
2023-04-07T14:45:59.780Z,101041.13
2023-04-07T14:48:26.586Z,101038.66
2023-04-07T14:51:02.515Z,101042.38
2023-04-07T14:53:35.470Z,101048.22
2023-04-07T14:56:05.100Z,101049.13
2023-04-07T14:58:31.923Z,101038.44
2023-04-07T15:00:58.417Z,101038.81
2023-04-07T15:03:25.148Z,101048.13
2023-04-07T15:05:51.709Z,101046.47
2023-04-07T15:08:18.092Z,101043.81
2023-04-07T15:10:44.644Z,101049.22
2023-04-07T15:13:11.129Z,101052.47
2023-04-07T15:15:37.674Z,101051.44
2023-04-07T15:18:04.362Z,101053.44
2023-04-07T15:20:30.822Z,101054.22
2023-04-07T15:23:00.362Z,101062.56
2023-04-07T15:25:26.863Z,101056.50
2023-04-07T15:27:53.496Z,101051.03
2023-04-07T15:30:19.910Z,101053.84
2023-04-07T15:33:00.299Z,101052.16
2023-04-07T15:35:27.305Z,101043.81
2023-04-07T15:37:53.715Z,101047.41
2023-04-07T15:40:20.716Z,101058.34
2023-04-07T15:42:47.088Z,101059.25
2023-04-07T15:45:13.592Z,101053.28
2023-04-07T15:47:40.200Z,101058.59
2023-04-07T15:50:07.389Z,101061.72
2023-04-07T15:52:33.784Z,101059.28
2023-04-07T15:55:00.228Z,101063.72
2023-04-07T15:57:26.605Z,101071.56
2023-04-07T15:59:52.968Z,101065.53
2023-04-07T16:02:19.411Z,101060.19
2023-04-07T16:04:47.340Z,101061.03
2023-04-07T16:07:13.726Z,101059.47
2023-04-07T16:09:40.088Z,101058.69
2023-04-07T16:12:06.714Z,101061.63
2023-04-07T16:14:33.105Z,101054.50
2023-04-07T16:16:59.587Z,101066.00
2023-04-07T16:19:26.299Z,101066.44
2023-04-07T16:21:52.945Z,101070.22
2023-04-07T16:24:19.385Z,101064.31
2023-04-07T16:26:52.374Z,101067.69
2023-04-07T16:29:19.337Z,101062.97
2023-04-07T16:31:45.867Z,101071.88
2023-04-07T16:34:12.481Z,101072.59
2023-04-07T16:36:38.978Z,101068.84
2023-04-07T16:39:05.480Z,101067.47
2023-04-07T16:41:31.888Z,101076.97
2023-04-07T16:43:58.371Z,101076.03
2023-04-07T16:46:28.314Z,101082.53
2023-04-07T16:48:54.860Z,101083.66
2023-04-07T16:51:21.394Z,101083.06
2023-04-07T16:53:47.989Z,101096.75
2023-04-07T16:56:22.106Z,101101.50
2023-04-07T16:58:49.006Z,101103.59
2023-04-07T17:01:15.710Z,101107.41
2023-04-07T17:03:42.441Z,101106.28
2023-04-07T17:06:09.021Z,101108.13
2023-04-07T17:08:36.285Z,101118.31
2023-04-07T17:11:06.735Z,101121.56
2023-04-07T17:13:33.357Z,101123.63
2023-04-07T17:16:02.226Z,101124.41
2023-04-07T17:18:28.709Z,101127.25
2023-04-07T17:20:55.093Z,101129.59
2023-04-07T17:23:21.592Z,101137.38
2023-04-07T17:25:51.409Z,101136.28
2023-04-07T17:28:17.851Z,101143.38
2023-04-07T17:30:44.268Z,101142.00
2023-04-07T17:33:12.055Z,101144.97
2023-04-07T17:35:38.605Z,101148.09
2023-04-07T17:38:05.446Z,101144.19
2023-04-07T17:40:32.048Z,101166.06
2023-04-07T17:42:59.980Z,101160.34
2023-04-07T17:45:26.357Z,101166.41
2023-04-07T17:47:52.961Z,101171.13
2023-04-07T17:50:19.668Z,101169.56
2023-04-07T17:52:46.152Z,101179.66
2023-04-07T17:55:12.712Z,101175.53
2023-04-07T17:57:40.221Z,101189.25
2023-04-07T18:00:07.627Z,101180.19
2023-04-07T18:02:34.643Z,101188.69
2023-04-07T18:05:01.469Z,101194.25
2023-04-07T18:07:29.192Z,101184.47
2023-04-07T18:09:56.819Z,101193.78
2023-04-07T18:12:23.663Z,101203.59
2023-04-07T18:14:50.248Z,101198.03
2023-04-07T18:17:16.647Z,101213.56
2023-04-07T18:19:43.132Z,101208.28
2023-04-07T18:22:12.317Z,101206.84
2023-04-07T18:24:38.749Z,101213.56
2023-04-07T18:27:05.398Z,101209.06
2023-04-07T18:29:31.804Z,101214.09
2023-04-07T18:31:58.278Z,101221.97
2023-04-07T18:34:26.076Z,101223.13
2023-04-07T18:36:53.662Z,101225.22
2023-04-07T18:39:20.143Z,101233.47
2023-04-07T18:41:48.183Z,101231.91
2023-04-07T18:44:14.643Z,101237.13
2023-04-07T18:46:41.413Z,101234.41
2023-04-07T18:49:07.894Z,101238.28
2023-04-07T18:51:35.021Z,101248.00
2023-04-07T18:54:01.392Z,101252.13
2023-04-07T18:56:28.260Z,101251.84
2023-04-07T18:58:54.684Z,101258.97
2023-04-07T19:01:21.540Z,101261.28
2023-04-07T19:03:48.362Z,101269.69
2023-04-07T19:06:15.900Z,101272.50
2023-04-07T19:08:42.954Z,101271.22
2023-04-07T19:11:10.062Z,101265.16
2023-04-07T19:13:36.468Z,101270.34
2023-04-07T19:16:03.111Z,101272.78
2023-04-07T19:18:31.474Z,101272.03
2023-04-07T19:20:57.829Z,101274.19
2023-04-07T19:23:24.172Z,101285.22
2023-04-07T19:25:50.600Z,101281.06
2023-04-07T19:28:17.029Z,101286.88
2023-04-07T19:30:43.375Z,101290.84
2023-04-07T19:33:10.039Z,101288.00
2023-04-07T19:35:38.799Z,101294.13
2023-04-07T19:38:06.770Z,101285.47
2023-04-07T19:40:33.454Z,101288.81
2023-04-07T19:43:00.355Z,101292.81
2023-04-07T19:45:26.809Z,101300.03
2023-04-07T19:47:54.313Z,101299.75
2023-04-07T19:50:20.784Z,101305.16
2023-04-07T19:52:47.262Z,101306.31
2023-04-07T19:55:13.938Z,101304.53
2023-04-07T19:57:40.414Z,101305.97
2023-04-07T20:00:09.016Z,101311.16
2023-04-07T20:02:36.408Z,101311.28
2023-04-07T20:05:03.535Z,101319.09
2023-04-07T20:07:31.401Z,101313.41
2023-04-07T20:09:57.994Z,101324.84
2023-04-07T20:12:24.420Z,101322.25
2023-04-07T20:14:51.034Z,101326.63
2023-04-07T20:17:17.490Z,101333.56
2023-04-07T20:19:43.859Z,101335.50
2023-04-07T20:22:10.334Z,101327.69
2023-04-07T20:24:37.204Z,101339.28
2023-04-07T20:27:03.681Z,101341.03
2023-04-07T20:29:30.058Z,101344.09
2023-04-07T20:31:56.517Z,101338.72
2023-04-07T20:34:22.882Z,101344.25
2023-04-07T20:36:49.254Z,101349.13
2023-04-07T20:39:16.414Z,101343.13
2023-04-07T20:41:44.955Z,101351.28
2023-04-07T20:44:12.109Z,101353.34
2023-04-07T20:46:38.584Z,101351.06
2023-04-07T20:49:07.532Z,101349.19
2023-04-07T20:51:36.617Z,101359.41
2023-04-07T20:54:03.721Z,101355.88
2023-04-07T20:56:30.211Z,101360.84
2023-04-07T20:58:56.576Z,101357.44
2023-04-07T21:01:23.120Z,101365.84
2023-04-07T21:03:49.666Z,101361.97
2023-04-07T21:06:16.155Z,101363.38
2023-04-07T21:08:42.521Z,101375.16
2023-04-07T21:11:08.925Z,101374.38
2023-04-07T21:13:35.288Z,101371.94
2023-04-07T21:16:03.705Z,101375.59
2023-04-07T21:18:30.619Z,101374.31
2023-04-07T21:20:58.782Z,101366.59
2023-04-07T21:23:25.337Z,101370.25
2023-04-07T21:25:51.742Z,101368.25
2023-04-07T21:28:18.129Z,101371.44
2023-04-07T21:30:44.552Z,101374.88
2023-04-07T21:33:12.319Z,101375.25
2023-04-07T21:35:38.827Z,101376.44
2023-04-07T21:38:05.212Z,101371.88
2023-04-07T21:40:31.609Z,101374.44
2023-04-07T21:42:58.095Z,101382.16
2023-04-07T21:45:24.538Z,101377.81
2023-04-07T21:47:51.041Z,101380.09
2023-04-07T21:50:17.530Z,101382.81
2023-04-07T21:52:43.969Z,101380.44
2023-04-07T21:55:10.801Z,101379.28
2023-04-07T21:57:38.490Z,101381.06
2023-04-07T22:00:07.231Z,101381.06
2023-04-07T22:02:33.969Z,101377.75
2023-04-07T22:05:00.641Z,101378.03
2023-04-07T22:07:27.122Z,101382.59
2023-04-07T22:09:53.475Z,101383.19
2023-04-07T22:12:19.851Z,101379.88
2023-04-07T22:14:46.236Z,101383.97
2023-04-07T22:17:12.600Z,101382.00
2023-04-07T22:19:38.975Z,101378.34
2023-04-07T22:22:07.610Z,101384.72
2023-04-07T22:24:34.751Z,101387.72
2023-04-07T22:27:04.619Z,101391.22
2023-04-07T22:29:31.165Z,101390.63
2023-04-07T22:31:57.703Z,101388.06
2023-04-07T22:34:24.173Z,101389.25
2023-04-07T22:36:50.732Z,101390.75
2023-04-07T22:39:17.102Z,101393.78
2023-04-07T22:41:43.569Z,101399.81
2023-04-07T22:44:09.930Z,101407.53
2023-04-07T22:46:36.324Z,101395.63
2023-04-07T22:49:02.796Z,101405.59
2023-04-07T22:51:29.342Z,101398.50
2023-04-07T22:53:55.693Z,101408.03
2023-04-07T22:56:22.162Z,101404.38
2023-04-07T22:58:48.686Z,101411.16
2023-04-07T23:01:15.603Z,101414.00
2023-04-07T23:03:42.495Z,101412.81
2023-04-07T23:06:08.962Z,101415.22
2023-04-07T23:08:35.524Z,101415.97
2023-04-07T23:11:02.010Z,101422.91
2023-04-07T23:13:28.463Z,101427.75
2023-04-07T23:15:54.892Z,101429.50
2023-04-07T23:18:21.235Z,101426.81
2023-04-07T23:20:54.039Z,101426.50
2023-04-07T23:23:20.396Z,101433.63
2023-04-07T23:25:46.801Z,101437.13
2023-04-07T23:28:13.148Z,101440.91
2023-04-07T23:30:39.541Z,101433.94
2023-04-07T23:33:05.928Z,101443.97
2023-04-07T23:35:32.343Z,101432.75
2023-04-07T23:37:58.738Z,101439.34
2023-04-07T23:40:25.277Z,101440.09
2023-04-07T23:42:52.022Z,101442.50
2023-04-07T23:45:20.114Z,101440.75
2023-04-07T23:47:47.140Z,101440.22
2023-04-07T23:50:13.666Z,101445.59
2023-04-07T23:52:40.902Z,101452.06
2023-04-07T23:55:07.530Z,101449.53
2023-04-07T23:57:33.938Z,101455.50
